createdAt,value
2023-02-09T00:00:14.280Z,47.86
2023-02-09T00:01:18.604Z,48.14
2023-02-09T00:02:20.473Z,48.21
2023-02-09T00:03:22.454Z,48.42
2023-02-09T00:04:24.527Z,48.69
2023-02-09T00:05:26.362Z,48.67
2023-02-09T00:06:30.148Z,48.47
2023-02-09T00:07:32.109Z,48.26
2023-02-09T00:08:34.320Z,48.51
2023-02-09T00:09:36.284Z,47.92
2023-02-09T00:10:39.302Z,47.92
2023-02-09T00:11:59.775Z,47.71
2023-02-09T00:13:19.862Z,47.84
2023-02-09T00:14:22.296Z,47.56
2023-02-09T00:15:24.572Z,47.75
2023-02-09T00:16:26.512Z,47.80
2023-02-09T00:17:28.395Z,47.58
2023-02-09T00:18:31.695Z,47.47
2023-02-09T00:19:33.550Z,47.53
2023-02-09T00:20:35.393Z,47.42
2023-02-09T00:21:37.263Z,47.61
2023-02-09T00:22:39.111Z,47.63
2023-02-09T00:23:41.704Z,47.33
2023-02-09T00:24:43.715Z,47.49
2023-02-09T00:25:45.645Z,47.57
2023-02-09T00:26:47.712Z,47.46
2023-02-09T00:27:49.597Z,46.92
2023-02-09T00:28:51.430Z,47.13
2023-02-09T00:29:53.392Z,47.57
2023-02-09T00:30:55.574Z,47.61
2023-02-09T00:31:57.461Z,47.88
2023-02-09T00:32:59.432Z,48.36
2023-02-09T00:34:01.661Z,48.52
2023-02-09T00:35:03.708Z,48.43
2023-02-09T00:36:09.220Z,48.25
2023-02-09T00:37:11.215Z,47.17
2023-02-09T00:38:13.363Z,47.31
2023-02-09T00:39:15.218Z,46.90
2023-02-09T00:40:17.173Z,46.71
2023-02-09T00:41:39.671Z,47.31
2023-02-09T00:42:41.633Z,47.71
2023-02-09T00:43:43.714Z,47.28
2023-02-09T00:44:46.264Z,47.36
2023-02-09T00:45:48.176Z,47.52
2023-02-09T00:46:50.086Z,47.66
2023-02-09T00:47:52.039Z,47.81
2023-02-09T00:48:53.860Z,47.93
2023-02-09T00:49:55.701Z,48.11
2023-02-09T00:50:57.562Z,47.52
2023-02-09T00:51:59.477Z,47.42
2023-02-09T00:53:01.341Z,47.57
2023-02-09T00:54:03.653Z,46.73
2023-02-09T00:55:06.249Z,47.23
2023-02-09T00:56:08.088Z,47.73
2023-02-09T00:57:10.036Z,47.90
2023-02-09T00:58:11.893Z,47.39
2023-02-09T00:59:13.809Z,47.86
2023-02-09T01:00:16.323Z,47.62
2023-02-09T01:01:18.247Z,47.74
2023-02-09T01:02:20.183Z,47.19
2023-02-09T01:03:22.062Z,47.81
2023-02-09T01:04:23.908Z,47.02
2023-02-09T01:05:25.888Z,47.25
2023-02-09T01:06:27.719Z,47.36
2023-02-09T01:07:29.569Z,46.97
2023-02-09T01:08:31.474Z,46.54
2023-02-09T01:09:33.269Z,46.69
2023-02-09T01:10:35.224Z,46.59
2023-02-09T01:11:37.079Z,46.84
2023-02-09T01:12:41.048Z,46.57
2023-02-09T01:13:43.387Z,46.61
2023-02-09T01:14:45.192Z,45.92
2023-02-09T01:15:47.021Z,46.48
2023-02-09T01:16:48.897Z,46.56
2023-02-09T01:17:50.983Z,46.48
2023-02-09T01:18:52.873Z,46.58
2023-02-09T01:19:55.006Z,46.88
2023-02-09T01:20:56.865Z,47.23
2023-02-09T01:21:58.688Z,47.10
2023-02-09T01:23:00.668Z,46.94
2023-02-09T01:24:02.597Z,46.86
2023-02-09T01:25:05.180Z,46.94
2023-02-09T01:26:09.564Z,47.09
2023-02-09T01:27:11.432Z,46.67
2023-02-09T01:28:13.340Z,46.82
2023-02-09T01:29:16.632Z,46.69
2023-02-09T01:30:18.502Z,46.80
2023-02-09T01:31:31.124Z,47.31
2023-02-09T01:32:33.061Z,46.90
2023-02-09T01:33:35.025Z,47.46
2023-02-09T01:34:36.833Z,46.69
2023-02-09T01:35:40.850Z,47.24
2023-02-09T01:36:43.152Z,47.50
2023-02-09T01:37:45.034Z,47.17
2023-02-09T01:38:46.924Z,46.77
2023-02-09T01:39:48.880Z,47.07
2023-02-09T01:40:50.824Z,46.93
2023-02-09T01:41:52.627Z,47.05
2023-02-09T01:42:54.507Z,47.16
2023-02-09T01:44:04.176Z,47.34
2023-02-09T01:45:08.201Z,47.78
2023-02-09T01:46:10.082Z,46.91
2023-02-09T01:47:15.508Z,47.65
2023-02-09T01:48:19.846Z,47.50
2023-02-09T01:49:22.815Z,47.93
2023-02-09T01:50:25.094Z,47.77
2023-02-09T01:51:27.872Z,47.22
2023-02-09T01:52:30.691Z,47.22
2023-02-09T01:53:32.569Z,46.63
2023-02-09T01:54:39.735Z,46.64
2023-02-09T01:55:46.137Z,47.17
2023-02-09T01:56:51.325Z,47.82
2023-02-09T01:57:56.458Z,48.23
2023-02-09T01:58:58.875Z,47.49
2023-02-09T02:00:11.519Z,47.39
2023-02-09T02:01:13.867Z,47.78
2023-02-09T02:02:16.013Z,47.74
2023-02-09T02:03:20.214Z,47.29
2023-02-09T02:04:22.440Z,47.02
2023-02-09T02:05:25.694Z,46.41
2023-02-09T02:06:27.642Z,46.57
2023-02-09T02:07:41.666Z,46.80
2023-02-09T02:08:43.529Z,46.83
2023-02-09T02:09:46.263Z,46.71
2023-02-09T02:10:48.151Z,47.00
2023-02-09T02:11:50.975Z,47.29
2023-02-09T02:12:54.603Z,46.39
2023-02-09T02:13:57.303Z,46.69
2023-02-09T02:14:59.157Z,46.35
2023-02-09T02:16:19.256Z,46.54
2023-02-09T02:17:24.156Z,47.10
2023-02-09T02:18:52.253Z,47.07
2023-02-09T02:19:54.091Z,46.51
2023-02-09T02:21:14.335Z,46.57
2023-02-09T02:22:22.275Z,46.36
2023-02-09T02:23:26.868Z,46.66
2023-02-09T02:24:37.888Z,46.49
2023-02-09T02:25:42.795Z,46.46
2023-02-09T02:26:58.812Z,46.14
2023-02-09T02:28:06.808Z,46.71
2023-02-09T02:29:20.907Z,46.33
2023-02-09T02:30:41.434Z,46.26
2023-02-09T02:31:46.381Z,46.93
2023-02-09T02:32:51.255Z,46.25
2023-02-09T02:34:25.604Z,46.05
2023-02-09T02:35:39.455Z,46.93
2023-02-09T02:36:52.386Z,47.01
2023-02-09T02:38:04.148Z,46.37
2023-02-09T02:39:05.915Z,46.88
2023-02-09T02:40:20.928Z,46.80
2023-02-09T02:41:51.221Z,46.57
2023-02-09T02:43:00.528Z,45.93
2023-02-09T02:44:13.977Z,46.41
2023-02-09T02:45:21.858Z,47.24
2023-02-09T02:46:40.057Z,46.59
2023-02-09T02:47:44.952Z,46.13
2023-02-09T02:49:09.933Z,45.96
2023-02-09T02:50:16.582Z,46.80
2023-02-09T02:51:36.519Z,47.40
2023-02-09T02:52:40.050Z,47.56
2023-02-09T02:53:44.258Z,47.50
2023-02-09T02:55:06.385Z,47.28
2023-02-09T02:56:14.496Z,46.89
2023-02-09T02:57:18.251Z,47.07
2023-02-09T02:58:22.022Z,46.60
2023-02-09T02:59:29.326Z,46.63
2023-02-09T03:00:34.956Z,46.76
2023-02-09T03:01:43.641Z,46.28
2023-02-09T03:02:50.580Z,46.33
2023-02-09T03:03:53.909Z,46.16
2023-02-09T03:04:57.016Z,46.29
2023-02-09T03:05:59.931Z,46.42
2023-02-09T03:07:04.933Z,45.91
2023-02-09T03:08:06.839Z,46.43
2023-02-09T03:09:08.689Z,46.57
2023-02-09T03:10:24.618Z,46.26
2023-02-09T03:11:34.744Z,46.83
2023-02-09T03:12:52.021Z,46.66
2023-02-09T03:13:56.610Z,46.68
2023-02-09T03:15:18.693Z,46.57
2023-02-09T03:16:29.650Z,46.03
2023-02-09T03:17:41.745Z,46.52
2023-02-09T03:18:49.686Z,47.03
2023-02-09T03:19:51.479Z,46.97
2023-02-09T03:20:59.329Z,46.61
2023-02-09T03:22:07.216Z,46.59
2023-02-09T03:23:13.800Z,46.19
2023-02-09T03:24:20.973Z,45.88
2023-02-09T03:25:22.823Z,46.09
2023-02-09T03:26:31.477Z,45.85
2023-02-09T03:27:41.023Z,45.95
2023-02-09T03:28:44.206Z,45.41
2023-02-09T03:29:48.320Z,45.48
2023-02-09T03:30:50.655Z,45.57
2023-02-09T03:31:52.657Z,45.73
2023-02-09T03:32:56.710Z,46.65
2023-02-09T03:33:58.815Z,46.35
2023-02-09T03:35:00.663Z,46.62
2023-02-09T03:36:03.151Z,46.13
2023-02-09T03:37:05.111Z,46.08
2023-02-09T03:38:07.590Z,45.42
2023-02-09T03:39:09.561Z,45.45
2023-02-09T03:40:11.604Z,45.73
2023-02-09T03:41:13.522Z,46.07
2023-02-09T03:42:16.164Z,45.40
2023-02-09T03:43:18.089Z,45.21
2023-02-09T03:44:28.861Z,45.90
2023-02-09T03:45:30.815Z,45.21
2023-02-09T03:46:34.006Z,45.27
2023-02-09T03:47:36.028Z,45.05
2023-02-09T03:48:38.298Z,45.54
2023-02-09T03:49:41.414Z,46.10
2023-02-09T03:50:43.690Z,46.03
2023-02-09T03:51:45.865Z,45.89
2023-02-09T03:52:47.715Z,45.10
2023-02-09T03:53:49.684Z,45.86
2023-02-09T03:54:51.719Z,45.12
2023-02-09T03:55:53.611Z,44.14
2023-02-09T03:56:55.649Z,44.38
2023-02-09T03:57:57.554Z,44.35
2023-02-09T03:58:59.477Z,44.22
2023-02-09T04:00:01.982Z,44.44
2023-02-09T04:01:08.051Z,44.27
2023-02-09T04:02:10.583Z,43.82
2023-02-09T04:03:12.433Z,44.27
2023-02-09T04:04:14.368Z,44.27
2023-02-09T04:05:16.439Z,44.84
2023-02-09T04:06:19.198Z,44.75
2023-02-09T04:07:20.993Z,43.99
2023-02-09T04:08:22.794Z,44.36
2023-02-09T04:09:25.281Z,44.46
2023-02-09T04:10:27.216Z,45.08
2023-02-09T04:11:29.144Z,44.22
2023-02-09T04:12:31.014Z,44.58
2023-02-09T04:13:32.870Z,44.95
2023-02-09T04:14:34.765Z,44.81
2023-02-09T04:15:38.812Z,44.95
2023-02-09T04:16:40.760Z,45.34
2023-02-09T04:17:42.645Z,45.31
2023-02-09T04:18:44.979Z,45.58
2023-02-09T04:19:46.890Z,45.11
2023-02-09T04:20:48.777Z,45.56
2023-02-09T04:21:50.619Z,44.87
2023-02-09T04:22:52.543Z,44.87
2023-02-09T04:23:54.477Z,45.09
2023-02-09T04:24:56.400Z,45.42
2023-02-09T04:25:58.210Z,45.87
2023-02-09T04:27:00.170Z,45.86
2023-02-09T04:28:02.128Z,45.35
2023-02-09T04:29:04.710Z,45.59
2023-02-09T04:30:06.945Z,45.89
2023-02-09T04:31:08.860Z,45.92
2023-02-09T04:32:10.811Z,46.09
2023-02-09T04:33:12.703Z,46.25
2023-02-09T04:34:14.644Z,46.68
2023-02-09T04:35:16.651Z,46.09
2023-02-09T04:36:18.471Z,45.87
2023-02-09T04:37:20.358Z,45.82
2023-02-09T04:38:22.671Z,45.41
2023-02-09T04:39:24.532Z,45.46
2023-02-09T04:40:26.419Z,44.96
2023-02-09T04:41:28.413Z,45.56
2023-02-09T04:42:32.201Z,45.68
2023-02-09T04:43:34.475Z,45.77
2023-02-09T04:44:36.286Z,45.48
2023-02-09T04:45:39.166Z,45.72
2023-02-09T04:46:41.170Z,45.70
2023-02-09T04:47:43.136Z,45.78
2023-02-09T04:48:45.657Z,46.22
2023-02-09T04:49:47.557Z,45.68
2023-02-09T04:50:49.920Z,45.28
2023-02-09T04:51:51.854Z,44.72
2023-02-09T04:52:53.682Z,44.47
2023-02-09T04:53:55.523Z,43.99
2023-02-09T04:54:57.462Z,44.41
2023-02-09T04:55:59.379Z,44.87
2023-02-09T04:57:19.712Z,45.09
2023-02-09T04:58:40.420Z,44.84
2023-02-09T04:59:45.188Z,45.57
2023-02-09T05:00:47.406Z,45.53
2023-02-09T05:01:49.503Z,46.20
2023-02-09T05:02:51.400Z,44.14
2023-02-09T05:03:53.625Z,43.64
2023-02-09T05:04:55.575Z,44.39
2023-02-09T05:05:58.255Z,44.34
2023-02-09T05:07:00.175Z,44.79
2023-02-09T05:08:02.026Z,43.66
2023-02-09T05:09:04.104Z,43.46
2023-02-09T05:10:06.152Z,44.03
2023-02-09T05:11:08.082Z,44.34
2023-02-09T05:12:10.662Z,43.98
2023-02-09T05:13:12.477Z,43.27
2023-02-09T05:14:14.419Z,43.46
2023-02-09T05:15:16.250Z,43.99
2023-02-09T05:16:18.194Z,44.06
2023-02-09T05:17:21.535Z,45.17
2023-02-09T05:18:25.135Z,45.28
2023-02-09T05:19:27.056Z,45.30
2023-02-09T05:20:28.919Z,43.48
2023-02-09T05:21:30.762Z,44.45
2023-02-09T05:22:32.754Z,44.51
2023-02-09T05:23:34.637Z,44.88
2023-02-09T05:24:36.577Z,44.76
2023-02-09T05:25:38.432Z,45.33
2023-02-09T05:26:40.278Z,45.49
2023-02-09T05:27:42.198Z,45.66
2023-02-09T05:28:44.098Z,46.07
2023-02-09T05:29:45.998Z,46.23
2023-02-09T05:30:49.300Z,45.47
2023-02-09T05:31:51.290Z,46.21
2023-02-09T05:32:53.982Z,45.60
2023-02-09T05:33:55.841Z,46.17
2023-02-09T05:34:57.682Z,45.35
2023-02-09T05:35:59.707Z,44.71
2023-02-09T05:37:01.600Z,44.71
2023-02-09T05:38:03.610Z,44.37
2023-02-09T05:39:05.548Z,44.55
2023-02-09T05:40:07.812Z,44.15
2023-02-09T05:41:10.796Z,44.71
2023-02-09T05:42:15.752Z,43.84
2023-02-09T05:43:17.705Z,44.20
2023-02-09T05:44:19.596Z,43.84
2023-02-09T05:45:21.456Z,44.29
2023-02-09T05:46:23.377Z,44.49
2023-02-09T05:47:25.492Z,44.43
2023-02-09T05:48:27.726Z,45.09
2023-02-09T05:49:29.683Z,44.99
2023-02-09T05:50:31.554Z,44.73
2023-02-09T05:51:33.423Z,44.94
2023-02-09T05:52:35.251Z,45.00
2023-02-09T05:53:37.166Z,44.44
2023-02-09T05:54:39.076Z,44.04
2023-02-09T05:55:40.971Z,43.83
2023-02-09T05:56:43.553Z,42.88
2023-02-09T05:57:45.479Z,43.10
2023-02-09T05:58:47.434Z,43.86
2023-02-09T05:59:49.284Z,43.51
2023-02-09T06:00:51.165Z,43.79
2023-02-09T06:01:53.046Z,44.31
2023-02-09T06:02:55.038Z,44.16
2023-02-09T06:03:56.952Z,44.11
2023-02-09T06:04:58.743Z,43.55
2023-02-09T06:06:00.674Z,43.49
2023-02-09T06:07:02.537Z,44.22
2023-02-09T06:08:04.501Z,43.85
2023-02-09T06:09:06.701Z,44.65
2023-02-09T06:10:08.834Z,45.11
2023-02-09T06:11:10.794Z,44.70
2023-02-09T06:12:12.649Z,44.43
2023-02-09T06:13:14.477Z,44.13
2023-02-09T06:14:16.572Z,44.73
2023-02-09T06:15:18.421Z,44.92
2023-02-09T06:16:20.400Z,45.43
2023-02-09T06:17:22.436Z,45.27
2023-02-09T06:18:24.238Z,45.67
2023-02-09T06:19:26.200Z,45.09
2023-02-09T06:20:28.042Z,45.93
2023-02-09T06:21:29.942Z,45.47
2023-02-09T06:22:32.068Z,45.75
2023-02-09T06:23:35.305Z,45.52
2023-02-09T06:24:37.384Z,45.22
2023-02-09T06:25:42.309Z,44.58
2023-02-09T06:26:44.365Z,44.16
2023-02-09T06:27:46.183Z,43.52
2023-02-09T06:28:48.195Z,43.59
2023-02-09T06:29:50.065Z,44.40
2023-02-09T06:30:52.897Z,44.59
2023-02-09T06:31:55.016Z,44.90
2023-02-09T06:32:56.946Z,44.92
2023-02-09T06:33:58.832Z,44.95
2023-02-09T06:35:00.764Z,44.93
2023-02-09T06:36:02.817Z,44.88
2023-02-09T06:37:04.713Z,44.60
2023-02-09T06:38:06.620Z,44.56
2023-02-09T06:39:09.479Z,45.36
2023-02-09T06:40:11.592Z,45.39
2023-02-09T06:41:13.485Z,44.82
2023-02-09T06:42:15.376Z,44.92
2023-02-09T06:43:17.944Z,45.00
2023-02-09T06:44:20.084Z,44.35
2023-02-09T06:45:22.015Z,45.06
2023-02-09T06:46:24.039Z,45.31
2023-02-09T06:47:26.425Z,44.73
2023-02-09T06:48:28.330Z,44.30
2023-02-09T06:49:30.469Z,44.95
2023-02-09T06:50:32.606Z,44.93
2023-02-09T06:51:34.560Z,45.24
2023-02-09T06:52:36.372Z,45.59
2023-02-09T06:53:38.806Z,45.12
2023-02-09T06:54:40.665Z,45.14
2023-02-09T06:55:42.520Z,45.17
2023-02-09T06:56:44.779Z,45.09
2023-02-09T06:57:46.715Z,45.14
2023-02-09T06:58:48.629Z,45.19
2023-02-09T06:59:50.475Z,45.66
2023-02-09T07:00:52.434Z,45.71
2023-02-09T07:01:55.068Z,45.65
2023-02-09T07:02:57.200Z,45.85
2023-02-09T07:03:59.153Z,45.51
2023-02-09T07:05:01.460Z,45.65
2023-02-09T07:06:07.167Z,46.22
2023-02-09T07:07:09.027Z,45.75
2023-02-09T07:08:10.996Z,45.72
2023-02-09T07:09:12.929Z,46.55
2023-02-09T07:10:15.971Z,46.54
2023-02-09T07:11:18.714Z,46.26
2023-02-09T07:12:20.545Z,46.23
2023-02-09T07:13:22.398Z,46.37
2023-02-09T07:14:24.328Z,46.40
2023-02-09T07:15:26.188Z,46.25
2023-02-09T07:16:28.228Z,46.07
2023-02-09T07:17:30.951Z,45.88
2023-02-09T07:18:32.915Z,46.25
2023-02-09T07:19:34.825Z,46.13
2023-02-09T07:20:36.640Z,46.54
2023-02-09T07:21:38.654Z,45.83
2023-02-09T07:22:41.140Z,46.02
2023-02-09T07:23:43.101Z,45.75
2023-02-09T07:24:44.914Z,46.28
2023-02-09T07:25:46.834Z,45.49
2023-02-09T07:26:48.812Z,46.65
2023-02-09T07:27:50.793Z,46.82
2023-02-09T07:28:52.772Z,46.02
2023-02-09T07:29:54.620Z,46.31
2023-02-09T07:31:01.765Z,45.97
2023-02-09T07:32:05.841Z,46.45
2023-02-09T07:33:08.132Z,45.98
2023-02-09T07:34:10.254Z,46.42
2023-02-09T07:35:12.239Z,46.09
2023-02-09T07:36:15.022Z,45.90
2023-02-09T07:37:17.130Z,46.23
2023-02-09T07:38:18.960Z,45.78
2023-02-09T07:39:20.867Z,45.98
2023-02-09T07:40:22.893Z,45.98
2023-02-09T07:41:25.513Z,46.22
2023-02-09T07:42:27.510Z,45.79
2023-02-09T07:43:29.826Z,45.93
2023-02-09T07:44:31.685Z,45.93
2023-02-09T07:45:34.049Z,45.91
2023-02-09T07:46:36.363Z,46.19
2023-02-09T07:47:38.998Z,46.14
2023-02-09T07:48:40.923Z,45.82
2023-02-09T07:49:42.813Z,45.91
2023-02-09T07:50:50.920Z,46.00
2023-02-09T07:51:52.771Z,46.58
2023-02-09T07:52:55.299Z,46.29
2023-02-09T07:53:57.774Z,45.30
2023-02-09T07:54:59.638Z,45.66
2023-02-09T07:56:01.551Z,45.46
2023-02-09T07:57:03.430Z,45.31
2023-02-09T07:58:05.295Z,44.95
2023-02-09T07:59:07.775Z,45.19
2023-02-09T08:00:10.024Z,45.14
2023-02-09T08:01:12.628Z,45.26
2023-02-09T08:02:19.144Z,45.77
2023-02-09T08:03:23.169Z,45.33
2023-02-09T08:04:25.015Z,45.33
2023-02-09T08:05:30.914Z,44.75
2023-02-09T08:06:43.483Z,44.70
2023-02-09T08:07:46.050Z,44.58
2023-02-09T08:08:48.904Z,44.73
2023-02-09T08:09:50.794Z,45.08
2023-02-09T08:10:53.339Z,45.24
2023-02-09T08:12:02.436Z,44.63
2023-02-09T08:13:04.482Z,44.45
2023-02-09T08:14:11.748Z,45.21
2023-02-09T08:15:14.627Z,44.52
2023-02-09T08:16:18.130Z,44.93
2023-02-09T08:17:20.773Z,44.92
2023-02-09T08:18:24.704Z,45.15
2023-02-09T08:19:26.618Z,45.40
2023-02-09T08:20:30.266Z,45.45
2023-02-09T08:21:34.229Z,45.11
2023-02-09T08:22:39.215Z,44.31
2023-02-09T08:23:42.735Z,44.94
2023-02-09T08:24:44.823Z,44.50
2023-02-09T08:25:49.001Z,44.27
2023-02-09T08:26:50.923Z,44.42
2023-02-09T08:27:53.485Z,43.71
2023-02-09T08:28:56.788Z,43.52
2023-02-09T08:30:00.612Z,43.57
2023-02-09T08:31:02.580Z,44.36
2023-02-09T08:32:04.551Z,44.04
2023-02-09T08:33:06.456Z,43.43
2023-02-09T08:34:08.436Z,43.34
2023-02-09T08:35:10.660Z,44.28
2023-02-09T08:36:12.868Z,43.99
2023-02-09T08:37:14.694Z,43.80
2023-02-09T08:38:16.585Z,44.16
2023-02-09T08:39:18.550Z,43.61
2023-02-09T08:40:20.425Z,43.93
2023-02-09T08:41:22.254Z,43.32
2023-02-09T08:42:24.091Z,42.99
2023-02-09T08:43:25.939Z,42.09
2023-02-09T08:44:27.835Z,43.31
2023-02-09T08:45:29.928Z,42.83
2023-02-09T08:46:31.878Z,43.44
2023-02-09T08:47:33.960Z,43.67
2023-02-09T08:48:38.557Z,42.84
2023-02-09T08:49:40.632Z,43.06
2023-02-09T08:50:42.623Z,43.00
2023-02-09T08:51:44.434Z,43.18
2023-02-09T08:52:46.468Z,42.56
2023-02-09T08:53:52.638Z,42.42
2023-02-09T08:54:54.667Z,42.28
2023-02-09T08:55:57.174Z,41.44
2023-02-09T08:56:59.576Z,42.55
2023-02-09T08:58:01.438Z,41.86
2023-02-09T08:59:03.344Z,41.60
2023-02-09T09:00:06.272Z,41.14
2023-02-09T09:01:08.375Z,42.84
2023-02-09T09:02:10.259Z,42.86
2023-02-09T09:03:12.097Z,41.74
2023-02-09T09:04:14.358Z,42.63
2023-02-09T09:05:16.209Z,42.77
2023-02-09T09:06:18.315Z,41.79
2023-02-09T09:07:20.206Z,42.82
2023-02-09T09:08:22.117Z,42.58
2023-02-09T09:09:23.999Z,41.75
2023-02-09T09:10:25.814Z,41.92
2023-02-09T09:11:28.474Z,41.45
2023-02-09T09:12:30.531Z,40.83
2023-02-09T09:13:32.623Z,41.76
2023-02-09T09:14:34.662Z,41.02
2023-02-09T09:15:37.041Z,41.01
2023-02-09T09:16:39.060Z,41.46
2023-02-09T09:17:40.901Z,40.21
2023-02-09T09:18:42.810Z,40.80
2023-02-09T09:19:44.662Z,40.95
2023-02-09T09:20:46.507Z,40.97
2023-02-09T09:21:48.434Z,39.96
2023-02-09T09:22:50.386Z,40.75
2023-02-09T09:23:52.319Z,40.83
2023-02-09T09:24:55.592Z,39.81
2023-02-09T09:26:01.971Z,40.10
2023-02-09T09:27:03.918Z,39.85
2023-02-09T09:28:06.331Z,41.02
2023-02-09T09:29:09.129Z,38.91
2023-02-09T09:30:11.360Z,38.92
2023-02-09T09:31:15.162Z,40.35
2023-02-09T09:32:17.208Z,40.17
2023-02-09T09:33:19.162Z,40.66
2023-02-09T09:34:20.970Z,41.13
2023-02-09T09:35:22.867Z,38.83
2023-02-09T09:36:24.780Z,39.82
2023-02-09T09:37:26.967Z,38.27
2023-02-09T09:38:28.845Z,38.82
2023-02-09T09:39:30.750Z,39.79
2023-02-09T09:40:35.210Z,39.22
2023-02-09T09:41:38.596Z,39.47
2023-02-09T09:42:47.386Z,38.73
2023-02-09T09:43:49.628Z,38.23
2023-02-09T09:44:51.913Z,38.37
2023-02-09T09:45:53.849Z,39.65
2023-02-09T09:47:01.415Z,39.81
2023-02-09T09:48:03.403Z,38.85
2023-02-09T09:49:05.430Z,37.39
2023-02-09T09:50:27.560Z,36.84
2023-02-09T09:51:38.519Z,38.42
2023-02-09T09:52:41.998Z,37.69
2023-02-09T09:53:45.989Z,37.89
2023-02-09T09:54:47.898Z,38.14
2023-02-09T09:55:55.424Z,38.06
2023-02-09T09:56:57.389Z,37.57
2023-02-09T09:58:01.198Z,38.11
2023-02-09T09:59:03.190Z,37.84
2023-02-09T10:00:11.331Z,36.78
2023-02-09T10:01:14.598Z,38.04
2023-02-09T10:02:24.038Z,37.90
2023-02-09T10:03:26.336Z,36.09
2023-02-09T10:04:28.821Z,36.57
2023-02-09T10:05:35.944Z,36.47
2023-02-09T10:06:40.834Z,36.39
2023-02-09T10:07:45.466Z,36.74
2023-02-09T10:08:47.302Z,37.37
2023-02-09T10:09:52.274Z,36.71
2023-02-09T10:11:00.251Z,35.63
2023-02-09T10:12:14.334Z,36.80
2023-02-09T10:13:21.211Z,35.68
2023-02-09T10:14:23.777Z,35.58
2023-02-09T10:15:30.944Z,37.54
2023-02-09T10:16:38.399Z,36.58
2023-02-09T10:17:40.371Z,36.00
2023-02-09T10:18:42.901Z,37.22
2023-02-09T10:19:59.155Z,35.55
2023-02-09T10:21:05.395Z,34.19
2023-02-09T10:22:12.047Z,34.82
2023-02-09T10:23:15.996Z,36.10
2023-02-09T10:24:22.713Z,36.09
2023-02-09T10:25:38.262Z,35.73
2023-02-09T10:26:41.156Z,34.63
2023-02-09T10:27:46.717Z,35.87
2023-02-09T10:28:51.937Z,35.59
2023-02-09T10:29:53.861Z,34.98
2023-02-09T10:30:58.096Z,35.53
2023-02-09T10:31:59.961Z,36.17
2023-02-09T10:33:02.239Z,36.31
2023-02-09T10:34:10.278Z,34.97
2023-02-09T10:35:29.507Z,35.19
2023-02-09T10:36:33.744Z,33.97
2023-02-09T10:37:40.043Z,34.08
2023-02-09T10:38:41.970Z,34.77
2023-02-09T10:39:44.619Z,33.40
2023-02-09T10:40:47.857Z,34.31
2023-02-09T10:41:51.950Z,34.91
2023-02-09T10:42:53.869Z,34.76
2023-02-09T10:43:55.744Z,34.65
2023-02-09T10:45:03.680Z,33.88
2023-02-09T10:46:16.466Z,33.38
2023-02-09T10:47:21.360Z,32.93
2023-02-09T10:48:25.237Z,34.52
2023-02-09T10:49:51.010Z,33.59
2023-02-09T10:50:54.313Z,33.87
2023-02-09T10:52:05.798Z,33.66
2023-02-09T10:53:27.954Z,33.24
2023-02-09T10:54:29.792Z,32.74
2023-02-09T10:55:39.681Z,33.03
2023-02-09T10:56:41.579Z,34.32
2023-02-09T10:57:43.502Z,33.16
2023-02-09T10:59:00.153Z,34.53
2023-02-09T11:00:22.178Z,35.60
2023-02-09T11:01:26.116Z,34.85
2023-02-09T11:02:34.605Z,33.63
2023-02-09T11:03:37.100Z,33.37
2023-02-09T11:04:40.174Z,33.82
2023-02-09T11:05:42.093Z,34.04
2023-02-09T11:06:50.639Z,32.68
2023-02-09T11:07:58.309Z,32.07
2023-02-09T11:09:03.470Z,32.18
2023-02-09T11:10:13.272Z,32.85
2023-02-09T11:11:35.703Z,32.90
2023-02-09T11:12:37.593Z,32.16
2023-02-09T11:13:40.972Z,32.77
2023-02-09T11:14:43.569Z,33.56
2023-02-09T11:15:48.548Z,32.94
2023-02-09T11:16:56.084Z,31.83
2023-02-09T11:18:10.948Z,32.49
2023-02-09T11:19:12.743Z,31.94
2023-02-09T11:20:22.232Z,31.95
2023-02-09T11:21:30.802Z,32.39
2023-02-09T11:22:54.069Z,32.84
2023-02-09T11:24:07.203Z,31.73
2023-02-09T11:25:21.380Z,31.64
2023-02-09T11:26:23.175Z,32.45
2023-02-09T11:27:32.146Z,31.98
2023-02-09T11:28:39.156Z,30.36
2023-02-09T11:29:50.661Z,32.26
2023-02-09T11:31:04.975Z,31.23
2023-02-09T11:32:06.922Z,30.90
2023-02-09T11:33:34.351Z,31.22
2023-02-09T11:34:42.090Z,31.74
2023-02-09T11:35:51.769Z,31.01
2023-02-09T11:36:53.618Z,30.95
2023-02-09T11:38:14.275Z,31.60
2023-02-09T11:39:16.202Z,31.46
2023-02-09T11:40:22.892Z,31.08
2023-02-09T11:41:49.861Z,31.26
2023-02-09T11:43:10.271Z,31.36
2023-02-09T11:44:17.421Z,31.07
2023-02-09T11:45:21.603Z,30.59
2023-02-09T11:46:24.786Z,29.98
2023-02-09T11:47:30.615Z,31.49
2023-02-09T11:48:36.718Z,30.25
2023-02-09T11:49:46.642Z,30.98
2023-02-09T11:51:00.744Z,31.90
2023-02-09T11:52:04.919Z,30.66
2023-02-09T11:53:14.250Z,31.28
2023-02-09T11:54:21.297Z,32.14
2023-02-09T11:55:29.184Z,31.27
2023-02-09T11:56:35.379Z,30.13
2023-02-09T11:57:42.550Z,31.53
2023-02-09T11:59:07.650Z,30.16
2023-02-09T12:00:17.121Z,30.35
2023-02-09T12:01:30.172Z,31.30
2023-02-09T12:02:32.008Z,30.64
2023-02-09T12:03:33.897Z,30.55
2023-02-09T12:04:55.906Z,30.55
2023-02-09T12:05:57.871Z,30.47
2023-02-09T12:07:05.834Z,29.56
2023-02-09T12:08:07.652Z,30.17
2023-02-09T12:09:20.419Z,29.71
2023-02-09T12:10:28.273Z,30.48
2023-02-09T12:11:37.052Z,28.61
2023-02-09T12:12:50.264Z,30.32
2023-02-09T12:13:54.981Z,29.52
2023-02-09T12:15:01.391Z,29.51
2023-02-09T12:16:08.016Z,30.04
2023-02-09T12:17:20.836Z,29.97
2023-02-09T12:18:30.564Z,30.20
2023-02-09T12:19:36.928Z,30.22
2023-02-09T12:20:38.780Z,30.79
2023-02-09T12:21:42.099Z,28.31
2023-02-09T12:22:48.843Z,29.97
2023-02-09T12:23:50.764Z,29.33
2023-02-09T12:25:11.214Z,28.43
2023-02-09T12:26:13.039Z,27.81
2023-02-09T12:27:27.560Z,29.74
2023-02-09T12:28:32.528Z,30.47
2023-02-09T12:29:41.769Z,29.23
2023-02-09T12:30:43.758Z,30.51
2023-02-09T12:32:03.826Z,30.13
2023-02-09T12:33:23.972Z,30.02
2023-02-09T12:34:38.187Z,30.00
2023-02-09T12:35:40.902Z,29.68
2023-02-09T12:37:01.740Z,29.25
2023-02-09T12:38:09.211Z,29.11
2023-02-09T12:39:25.400Z,29.83
2023-02-09T12:40:35.433Z,29.67
2023-02-09T12:41:42.975Z,30.56
2023-02-09T12:43:05.073Z,29.65
2023-02-09T12:44:09.975Z,30.20
2023-02-09T12:45:32.211Z,30.51
2023-02-09T12:46:37.178Z,29.23
2023-02-09T12:47:46.867Z,29.86
2023-02-09T12:48:51.583Z,29.37
2023-02-09T12:50:02.147Z,30.83
2023-02-09T12:51:04.136Z,31.04
2023-02-09T12:52:09.624Z,28.35
2023-02-09T12:53:23.781Z,29.28
2023-02-09T12:54:43.799Z,28.75
2023-02-09T12:56:23.434Z,30.67
2023-02-09T12:57:26.406Z,30.49
2023-02-09T12:58:54.677Z,31.18
2023-02-09T12:59:56.712Z,28.96
2023-02-09T13:00:58.698Z,29.04
2023-02-09T13:02:11.340Z,28.56
2023-02-09T13:03:15.482Z,29.33
2023-02-09T13:04:17.452Z,29.49
2023-02-09T13:05:22.462Z,29.18
2023-02-09T13:06:33.239Z,28.65
2023-02-09T13:07:41.838Z,30.47
2023-02-09T13:08:48.996Z,30.17
2023-02-09T13:09:52.107Z,30.53
2023-02-09T13:10:54.030Z,29.93
2023-02-09T13:12:15.047Z,30.65
2023-02-09T13:13:29.050Z,30.65
2023-02-09T13:14:31.038Z,30.29
2023-02-09T13:15:56.200Z,30.30
2023-02-09T13:17:04.208Z,30.46
2023-02-09T13:18:20.732Z,29.97
2023-02-09T13:19:47.674Z,31.12
2023-02-09T13:21:08.847Z,30.93
2023-02-09T13:22:22.569Z,29.44
2023-02-09T13:23:28.164Z,29.90
2023-02-09T13:24:38.187Z,29.06
2023-02-09T13:25:40.445Z,29.51
2023-02-09T13:26:58.487Z,29.92
2023-02-09T13:28:20.256Z,30.36
2023-02-09T13:29:30.116Z,29.24
2023-02-09T13:30:32.908Z,29.48
2023-02-09T13:31:35.186Z,30.61
2023-02-09T13:32:57.237Z,31.05
2023-02-09T13:34:02.137Z,29.23
2023-02-09T13:35:04.233Z,30.71
2023-02-09T13:36:24.100Z,28.72
2023-02-09T13:37:45.522Z,30.56
2023-02-09T13:38:47.474Z,31.06
2023-02-09T13:39:58.097Z,31.83
2023-02-09T13:41:00.125Z,30.25
2023-02-09T13:42:01.977Z,29.27
2023-02-09T13:43:13.003Z,29.84
2023-02-09T13:44:22.682Z,29.73
2023-02-09T13:45:26.971Z,29.10
2023-02-09T13:46:32.498Z,30.26
2023-02-09T13:47:34.580Z,30.20
2023-02-09T13:48:38.668Z,29.81
2023-02-09T13:49:40.990Z,28.12
2023-02-09T13:50:47.006Z,29.20
2023-02-09T13:52:09.753Z,29.27
2023-02-09T13:53:11.684Z,29.05
2023-02-09T13:54:20.577Z,29.42
2023-02-09T13:55:23.699Z,29.62
2023-02-09T13:56:26.328Z,28.93